Time;durP1;ratioP1;P1;durP2;ratioP2;P2;SDS_P1;SDS_P2;PMS_P1;PMS_P2;Temp;Humidity;BMP_temperature;BMP_pressure;BME280_temperature;BME280_humidity;BME280_pressure;Samples;Min_cycle;Max_cycle;Signal;HPM_P1;HPM_P2
2023/01/24 00:00:06;;;;;;;;;;;2.80;99.90;;;;;;5024633;28;19916;-81
2023/01/24 00:02:31;;;;;;;;;;;2.80;99.90;;;;;;5022196;28;19906;-81
2023/01/24 00:04:57;;;;;;;;;;;2.70;99.90;;;;;;5025827;28;19960;-81
2023/01/24 00:07:22;;;;;;;;;;;2.80;99.90;;;;;;5024149;28;19916;-82
2023/01/24 00:09:48;;;;;;;;;;;2.80;99.90;;;;;;5024581;28;19909;-81
2023/01/24 00:12:13;;;;;;;;;;;2.80;99.90;;;;;;5024018;28;19916;-81
2023/01/24 00:14:39;;;;;;;;;;;2.80;99.90;;;;;;5014176;28;19917;-81
2023/01/24 00:17:04;;;;;;;;;;;2.80;99.90;;;;;;5014211;28;19913;-81
2023/01/24 00:19:30;;;;;;;;;;;2.80;99.90;;;;;;5013833;28;19906;-81
2023/01/24 00:21:55;;;;;;;;;;;2.80;99.90;;;;;;5013502;28;19917;-81
2023/01/24 00:24:21;;;;;;;;;;;2.80;99.90;;;;;;5012266;28;20357;-81
2023/01/24 00:26:46;;;;;;;;;;;2.80;99.90;;;;;;5013469;28;19932;-81
2023/01/24 00:29:12;;;;;;;;;;;2.80;99.90;;;;;;5013871;28;19906;-81
2023/01/24 00:31:37;;;;;;;;;;;2.80;99.90;;;;;;5013435;28;20012;-81
2023/01/24 00:34:03;;;;;;;;;;;2.90;99.90;;;;;;5012359;28;19909;-81
2023/01/24 00:36:28;;;;;;;;;;;2.90;99.90;;;;;;5013610;28;19913;-81
2023/01/24 00:38:54;;;;;;;;;;;2.90;99.90;;;;;;5013888;28;19909;-81
2023/01/24 00:41:20;;;;;;;;;;;2.90;99.90;;;;;;5013010;28;20429;-81
2023/01/24 00:43:46;;;;;;;;;;;2.80;99.90;;;;;;5013344;28;20380;-82
2023/01/24 00:46:11;;;;;;;;;;;2.80;99.90;;;;;;5013411;28;20257;-82
2023/01/24 00:48:37;;;;;;;;;;;2.80;99.90;;;;;;5013375;28;19909;-82
2023/01/24 00:51:02;;;;;;;;;;;2.90;99.90;;;;;;5012300;28;19912;-82
2023/01/24 00:53:28;;;;;;;;;;;2.90;99.90;;;;;;5013739;28;19910;-81
2023/01/24 00:55:54;;;;;;;;;;;2.90;99.90;;;;;;5013731;28;20257;-81
2023/01/24 00:58:20;;;;;;;;;;;2.90;99.90;;;;;;5012571;28;20369;-81
2023/01/24 01:00:46;;;;;;;;;;;2.90;99.90;;;;;;5013218;28;19913;-81
2023/01/24 01:03:16;;;;;;;;;;;2.90;99.90;;;;;;5012702;28;20361;-82
2023/01/24 01:05:41;;;;;;;;;;;2.90;99.90;;;;;;5013143;28;19906;-82
2023/01/24 01:08:07;;;;;;;;;;;2.90;99.90;;;;;;5013113;28;19917;-82
2023/01/24 01:10:32;;;;;;;;;;;2.90;99.90;;;;;;5011324;28;19941;-81
2023/01/24 01:12:58;;;;;;;;;;;2.90;99.90;;;;;;5012603;28;19913;-81
2023/01/24 01:15:23;;;;;;;;;;;2.90;99.90;;;;;;5013067;28;19975;-82
2023/01/24 01:17:49;;;;;;;;;;;2.90;99.90;;;;;;5012111;28;20579;-81
2023/01/24 01:20:14;;;;;;;;;;;2.90;99.90;;;;;;5012833;28;19912;-81
2023/01/24 01:22:40;;;;;;;;;;;2.90;99.90;;;;;;5012867;28;19905;-81
2023/01/24 01:25:06;;;;;;;;;;;2.90;99.90;;;;;;5012660;28;19905;-81
2023/01/24 01:27:31;;;;;;;;;;;2.90;99.90;;;;;;5012742;28;19910;-81
2023/01/24 01:29:57;;;;;;;;;;;2.90;99.90;;;;;;5012849;28;19906;-81
2023/01/24 01:32:22;;;;;;;;;;;2.90;99.90;;;;;;5012275;28;19911;-81
2023/01/24 01:34:47;;;;;;;;;;;2.90;99.90;;;;;;5011579;28;19905;-82
2023/01/24 01:37:13;;;;;;;;;;;2.90;99.90;;;;;;5012950;28;20364;-81
2023/01/24 01:39:39;;;;;;;;;;;2.90;99.90;;;;;;5013138;28;19913;-81
2023/01/24 01:42:04;;;;;;;;;;;2.90;99.90;;;;;;5003872;28;20369;-82
2023/01/24 01:44:49;;;;;;;;;;;2.90;99.90;;;;;;4992890;28;19912;-81
2023/01/24 01:47:33;;;;;;;;;;;2.90;99.90;;;;;;5010937;28;20000;-81
2023/01/24 01:50:07;;;;;;;;;;;2.80;99.90;;;;;;5012766;28;20364;-81
2023/01/24 01:52:36;;;;;;;;;;;2.80;99.90;;;;;;5011341;28;19983;-81
2023/01/24 01:55:03;;;;;;;;;;;2.70;99.90;;;;;;5013173;28;19955;-81
2023/01/24 01:57:30;;;;;;;;;;;2.70;99.90;;;;;;5012315;28;19913;-81
2023/01/24 02:00:03;;;;;;;;;;;2.60;99.90;;;;;;5012486;28;19913;-81
2023/01/24 02:02:28;;;;;;;;;;;2.50;99.90;;;;;;5012403;28;19905;-81
2023/01/24 02:04:58;;;;;;;;;;;2.40;99.90;;;;;;5011693;28;19912;-81
2023/01/24 02:07:44;;;;;;;;;;;2.30;99.90;;;;;;5012645;28;19913;-81
2023/01/24 02:10:10;;;;;;;;;;;2.20;99.90;;;;;;5012425;28;19909;-81
2023/01/24 02:12:38;;;;;;;;;;;2.10;99.90;;;;;;5011889;28;20009;-81
2023/01/24 02:17:50;;;;;;;;;;;2.00;99.90;;;;;;5012257;28;19916;-81
2023/01/24 02:20:19;;;;;;;;;;;1.90;99.90;;;;;;5012286;28;19909;-81
2023/01/24 02:22:58;;;;;;;;;;;1.90;99.90;;;;;;5012192;28;19909;-81
2023/01/24 02:25:27;;;;;;;;;;;1.80;99.90;;;;;;5011793;28;19906;-82
2023/01/24 02:27:52;;;;;;;;;;;1.80;99.90;;;;;;5011911;28;19910;-82
2023/01/24 02:30:18;;;;;;;;;;;1.70;99.90;;;;;;5012276;28;19937;-81
2023/01/24 02:32:44;;;;;;;;;;;1.80;99.90;;;;;;5012426;28;19949;-81
2023/01/24 02:35:27;;;;;;;;;;;1.70;99.90;;;;;;5012432;28;19905;-81
2023/01/24 02:37:53;;;;;;;;;;;1.70;99.90;;;;;;5011755;28;20372;-81
2023/01/24 02:40:19;;;;;;;;;;;1.70;99.90;;;;;;5012320;28;19906;-82
2023/01/24 02:42:45;;;;;;;;;;;1.60;99.90;;;;;;4997655;28;19920;-81
2023/01/24 02:45:18;;;;;;;;;;;1.60;99.90;;;;;;4996180;28;19906;-81
2023/01/24 02:47:45;;;;;;;;;;;1.60;99.90;;;;;;5015841;28;19953;-81
2023/01/24 02:50:11;;;;;;;;;;;1.60;99.90;;;;;;5015337;28;19905;-81
2023/01/24 02:55:21;;;;;;;;;;;1.60;99.90;;;;;;5015490;28;20419;-81
2023/01/24 03:00:41;;;;;;;;;;;1.60;99.90;;;;;;5015529;28;19913;-81
2023/01/24 03:03:07;;;;;;;;;;;1.60;99.90;;;;;;5015496;28;19905;-81
2023/01/24 03:08:17;;;;;;;;;;;1.60;99.90;;;;;;5015458;28;19977;-82
2023/01/24 03:10:42;;;;;;;;;;;1.60;99.90;;;;;;5015001;28;19913;-81
2023/01/24 03:35:01;;;;;;;;;;;1.90;99.90;;;;;;5014708;28;19960;-81
2023/01/24 03:40:14;;;;;;;;;;;2.00;99.90;;;;;;5014902;28;20003;-82
2023/01/24 03:42:48;;;;;;;;;;;2.00;99.90;;;;;;4999521;28;19909;-81
2023/01/24 03:45:17;;;;;;;;;;;2.00;99.90;;;;;;4996475;28;19992;-82
2023/01/24 03:47:54;;;;;;;;;;;2.10;99.90;;;;;;5013447;28;19999;-82
2023/01/24 03:53:07;;;;;;;;;;;2.20;99.90;;;;;;5014811;28;20067;-81
2023/01/24 03:55:33;;;;;;;;;;;2.20;99.90;;;;;;5013999;28;20380;-82
2023/01/24 03:57:58;;;;;;;;;;;2.20;99.90;;;;;;5014127;28;20035;-82
2023/01/24 04:00:24;;;;;;;;;;;2.30;99.90;;;;;;5014432;28;20288;-82
2023/01/24 04:02:49;;;;;;;;;;;2.30;99.90;;;;;;5014351;28;19906;-82
2023/01/24 04:05:15;;;;;;;;;;;2.30;99.90;;;;;;5014282;28;19944;-82
2023/01/24 04:07:41;;;;;;;;;;;2.50;99.90;;;;;;5013463;28;19912;-82
2023/01/24 04:10:07;;;;;;;;;;;2.50;99.90;;;;;;5014208;28;19976;-82
2023/01/24 04:12:32;;;;;;;;;;;2.40;99.90;;;;;;5014071;28;19913;-82
2023/01/24 04:14:58;;;;;;;;;;;2.50;99.90;;;;;;5013991;28;19906;-82
2023/01/24 04:17:23;;;;;;;;;;;2.40;99.90;;;;;;5013047;28;20199;-81
2023/01/24 04:19:49;;;;;;;;;;;2.50;99.90;;;;;;5013882;28;19932;-82
2023/01/24 04:22:16;;;;;;;;;;;2.50;99.90;;;;;;5013711;28;19921;-82
2023/01/24 04:24:42;;;;;;;;;;;2.60;99.90;;;;;;5013721;28;19941;-81
2023/01/24 04:27:07;;;;;;;;;;;2.60;99.90;;;;;;5013724;28;19940;-82
2023/01/24 04:29:33;;;;;;;;;;;2.60;99.90;;;;;;5013629;28;19932;-82
2023/01/24 04:31:58;;;;;;;;;;;2.50;99.90;;;;;;5012224;28;20415;-81
2023/01/24 04:34:24;;;;;;;;;;;2.60;99.90;;;;;;5013986;28;19909;-81
2023/01/24 04:36:49;;;;;;;;;;;2.60;99.90;;;;;;5013798;28;20291;-81
2023/01/24 04:39:15;;;;;;;;;;;2.60;99.90;;;;;;5014009;28;19909;-81
2023/01/24 04:41:40;;;;;;;;;;;2.60;99.90;;;;;;5013516;28;19972;-81
2023/01/24 04:44:06;;;;;;;;;;;2.60;99.90;;;;;;5013378;28;19909;-81
2023/01/24 04:46:31;;;;;;;;;;;2.60;99.90;;;;;;5013405;28;19905;-81
2023/01/24 04:48:57;;;;;;;;;;;2.60;99.90;;;;;;5012217;28;19909;-82
2023/01/24 04:51:22;;;;;;;;;;;2.60;99.90;;;;;;5013531;28;19905;-82
2023/01/24 04:53:48;;;;;;;;;;;2.60;99.90;;;;;;5013102;28;19905;-81
2023/01/24 04:56:13;;;;;;;;;;;2.60;99.90;;;;;;5012982;28;20365;-81
2023/01/24 04:58:39;;;;;;;;;;;2.60;99.90;;;;;;5013139;28;19914;-81
2023/01/24 05:01:04;;;;;;;;;;;2.60;99.90;;;;;;5013442;28;20280;-81
2023/01/24 05:03:30;;;;;;;;;;;2.70;99.90;;;;;;5013181;28;19909;-81
2023/01/24 05:05:56;;;;;;;;;;;2.70;99.90;;;;;;5012530;28;19905;-82
2023/01/24 05:08:21;;;;;;;;;;;2.70;99.90;;;;;;5011762;28;20399;-82
2023/01/24 05:10:47;;;;;;;;;;;2.70;99.90;;;;;;5011873;28;20016;-81
2023/01/24 05:13:12;;;;;;;;;;;2.70;99.90;;;;;;5012702;28;19995;-81
2023/01/24 05:15:38;;;;;;;;;;;2.70;99.90;;;;;;5013237;28;19905;-81
2023/01/24 05:18:03;;;;;;;;;;;2.70;99.90;;;;;;5012815;28;19955;-82
2023/01/24 05:20:29;;;;;;;;;;;2.70;99.90;;;;;;5012795;28;19960;-82
2023/01/24 05:22:55;;;;;;;;;;;2.70;99.90;;;;;;5013104;28;20274;-81
2023/01/24 05:25:20;;;;;;;;;;;2.70;99.90;;;;;;5012821;28;20410;-81
2023/01/24 05:27:46;;;;;;;;;;;2.70;99.90;;;;;;5012590;28;19905;-81
2023/01/24 05:30:12;;;;;;;;;;;2.70;99.90;;;;;;5012466;28;19952;-82
2023/01/24 05:32:37;;;;;;;;;;;2.70;99.90;;;;;;5012967;28;19963;-81
2023/01/24 05:35:04;;;;;;;;;;;2.70;99.90;;;;;;5012888;28;19913;-82
2023/01/24 05:37:29;;;;;;;;;;;2.70;99.90;;;;;;5013055;28;19936;-82
2023/01/24 05:39:55;;;;;;;;;;;2.70;99.90;;;;;;5013169;28;20331;-81
2023/01/24 05:42:20;;;;;;;;;;;2.70;99.90;;;;;;5001362;28;19912;-81
2023/01/24 05:44:46;;;;;;;;;;;2.70;99.90;;;;;;4991551;28;20301;-81
2023/01/24 05:47:11;;;;;;;;;;;2.80;99.90;;;;;;5010540;28;19905;-82
2023/01/24 05:49:37;;;;;;;;;;;2.70;99.90;;;;;;5012761;28;20276;-83
2023/01/24 05:52:02;;;;;;;;;;;2.70;99.90;;;;;;5012768;28;19952;-82
2023/01/24 05:54:28;;;;;;;;;;;2.70;99.90;;;;;;5012760;28;19909;-82
2023/01/24 05:56:53;;;;;;;;;;;2.80;99.90;;;;;;5011353;28;19909;-84
2023/01/24 05:59:19;;;;;;;;;;;2.70;99.90;;;;;;5012373;28;19920;-83
2023/01/24 06:01:44;;;;;;;;;;;2.80;99.90;;;;;;5012737;28;19914;-84
2023/01/24 06:04:10;;;;;;;;;;;2.80;99.90;;;;;;5012530;28;19905;-84
2023/01/24 06:06:36;;;;;;;;;;;2.70;99.90;;;;;;5012215;28;19909;-84
2023/01/24 06:09:02;;;;;;;;;;;2.70;99.90;;;;;;5011159;28;19928;-84
2023/01/24 06:11:28;;;;;;;;;;;2.70;99.90;;;;;;5012193;28;20372;-83
2023/01/24 06:13:54;;;;;;;;;;;2.80;99.90;;;;;;5012247;28;19995;-84
2023/01/24 06:16:21;;;;;;;;;;;2.80;99.90;;;;;;5012380;28;19936;-84
2023/01/24 06:18:47;;;;;;;;;;;2.80;99.90;;;;;;5014558;28;19952;-83
2023/01/24 06:21:31;;;;;;;;;;;2.80;99.90;;;;;;5015969;28;20343;-83
2023/01/24 06:23:57;;;;;;;;;;;2.80;99.90;;;;;;5016050;28;19909;-83
2023/01/24 06:26:22;;;;;;;;;;;2.80;99.90;;;;;;5015528;28;19905;-83
2023/01/24 06:28:48;;;;;;;;;;;2.80;99.90;;;;;;5015879;28;19906;-83
2023/01/24 06:31:30;;;;;;;;;;;2.90;99.90;;;;;;5016114;28;20000;-83
2023/01/24 06:34:10;;;;;;;;;;;2.80;99.90;;;;;;5010653;28;20348;-83
2023/01/24 06:36:41;;;;;;;;;;;2.80;99.90;;;;;;5010496;28;20253;-83
2023/01/24 06:39:12;;;;;;;;;;;2.80;99.90;;;;;;5015047;28;19909;-83
2023/01/24 06:41:38;;;;;;;;;;;2.80;99.90;;;;;;5018846;28;20369;-83
2023/01/24 06:44:04;;;;;;;;;;;2.80;99.90;;;;;;5004710;28;19967;-83
2023/01/24 06:46:30;;;;;;;;;;;2.80;99.90;;;;;;5015439;28;20000;-83
2023/01/24 06:48:55;;;;;;;;;;;2.80;99.90;;;;;;5021066;28;20462;-83
2023/01/24 06:51:21;;;;;;;;;;;2.80;99.90;;;;;;5021742;28;19912;-83
2023/01/24 06:53:46;;;;;;;;;;;2.80;99.90;;;;;;5032048;28;19905;-83
2023/01/24 06:56:12;;;;;;;;;;;2.90;99.90;;;;;;5020929;28;20012;-83
2023/01/24 06:58:37;;;;;;;;;;;2.80;99.90;;;;;;5017767;28;20391;-83
2023/01/24 07:01:03;;;;;;;;;;;2.80;99.90;;;;;;5016504;28;19906;-83
2023/01/24 07:03:28;;;;;;;;;;;2.80;99.90;;;;;;5015919;28;19910;-83
2023/01/24 07:05:54;;;;;;;;;;;2.80;99.90;;;;;;5014903;28;19931;-83
2023/01/24 07:08:20;;;;;;;;;;;2.80;99.90;;;;;;5015876;28;19909;-85
2023/01/24 07:10:46;;;;;;;;;;;2.80;99.90;;;;;;5035050;28;20020;-83
2023/01/24 07:13:11;;;;;;;;;;;2.80;99.90;;;;;;5023264;28;20447;-82
2023/01/24 07:15:37;;;;;;;;;;;2.80;99.90;;;;;;5009764;28;19917;-80
2023/01/24 07:18:06;;;;;;;;;;;2.80;99.90;;;;;;5003840;28;19917;-81
2023/01/24 07:20:32;;;;;;;;;;;2.80;99.90;;;;;;5014306;28;19921;-85
2023/01/24 07:22:58;;;;;;;;;;;2.80;99.90;;;;;;5011215;28;19994;-82
2023/01/24 07:25:25;;;;;;;;;;;2.80;99.90;;;;;;5008861;28;20396;-80
2023/01/24 07:27:51;;;;;;;;;;;2.80;99.90;;;;;;5012042;28;19909;-81
2023/01/24 07:30:16;;;;;;;;;;;2.80;99.90;;;;;;5018286;28;19920;-79
2023/01/24 07:32:42;;;;;;;;;;;2.80;99.90;;;;;;5018898;28;20240;-80
2023/01/24 07:35:07;;;;;;;;;;;2.80;99.90;;;;;;5019349;28;19913;-80
2023/01/24 07:37:33;;;;;;;;;;;2.80;99.90;;;;;;5023535;28;19929;-80
2023/01/24 07:39:58;;;;;;;;;;;2.80;99.90;;;;;;5011845;28;19917;-79
2023/01/24 07:42:24;;;;;;;;;;;2.80;99.90;;;;;;5002481;28;19928;-79
2023/01/24 07:44:50;;;;;;;;;;;2.80;99.90;;;;;;5011129;28;20607;-79
2023/01/24 07:47:15;;;;;;;;;;;2.80;99.90;;;;;;5010211;28;20272;-84
2023/01/24 07:49:40;;;;;;;;;;;2.70;99.90;;;;;;5011140;28;19921;-85
2023/01/24 07:52:06;;;;;;;;;;;2.80;99.90;;;;;;5026083;28;19926;-84
2023/01/24 07:54:31;;;;;;;;;;;2.80;99.90;;;;;;5006680;28;19913;-80
2023/01/24 07:56:57;;;;;;;;;;;2.80;99.90;;;;;;5011097;28;19917;-79
2023/01/24 07:59:22;;;;;;;;;;;2.80;99.90;;;;;;5007564;28;19953;-79
2023/01/24 08:01:48;;;;;;;;;;;2.80;99.90;;;;;;5013531;28;19906;-80
2023/01/24 08:04:14;;;;;;;;;;;2.90;99.90;;;;;;5019848;28;19919;-80
2023/01/24 08:07:16;;;;;;;;;;;2.90;99.90;;;;;;5017937;28;20008;-80
2023/01/24 08:09:26;;;;;;;;;;;2.90;99.90;;;;;;5018096;28;20005;-80
2023/01/24 08:11:52;;;;;;;;;;;2.90;99.90;;;;;;5017202;28;19963;-80
2023/01/24 08:14:17;;;;;;;;;;;2.90;99.90;;;;;;5010301;28;19961;-76
2023/01/24 08:16:43;;;;;;;;;;;3.00;99.90;;;;;;5010082;28;19914;-79
2023/01/24 08:19:08;;;;;;;;;;;3.00;99.90;;;;;;5010762;28;19913;-80
2023/01/24 08:21:33;;;;;;;;;;;3.00;99.90;;;;;;5010876;28;20405;-81
2023/01/24 08:23:59;;;;;;;;;;;3.00;99.90;;;;;;5010070;28;19924;-79
2023/01/24 08:26:24;;;;;;;;;;;3.00;99.90;;;;;;5010016;28;19909;-80
2023/01/24 08:28:50;;;;;;;;;;;3.10;99.90;;;;;;5012000;28;20300;-79
2023/01/24 08:31:15;;;;;;;;;;;3.10;99.90;;;;;;5010502;28;19941;-78
2023/01/24 08:33:41;;;;;;;;;;;3.10;99.90;;;;;;5016074;28;19976;-80
2023/01/24 08:36:07;;;;;;;;;;;3.10;99.90;;;;;;5020402;28;20396;-77
2023/01/24 08:38:32;;;;;;;;;;;3.10;99.90;;;;;;5022674;28;20368;-77
2023/01/24 08:40:58;;;;;;;;;;;3.20;99.90;;;;;;5013725;28;19916;-78
2023/01/24 08:43:23;;;;;;;;;;;3.20;99.90;;;;;;5019238;28;19913;-78
2023/01/24 08:45:53;;;;;;;;;;;3.30;99.90;;;;;;5023662;28;19965;-79
2023/01/24 08:48:18;;;;;;;;;;;3.30;99.90;;;;;;5016074;28;20009;-77
2023/01/24 08:50:44;;;;;;;;;;;3.20;99.90;;;;;;5008112;28;20003;-77
2023/01/24 08:53:09;;;;;;;;;;;3.20;99.90;;;;;;5007153;28;20406;-78
2023/01/24 08:55:35;;;;;;;;;;;3.20;99.90;;;;;;5009301;28;19916;-78
2023/01/24 08:58:01;;;;;;;;;;;3.30;99.90;;;;;;5010766;28;19917;-77
2023/01/24 09:00:27;;;;;;;;;;;3.20;99.90;;;;;;5014638;28;19954;-77
2023/01/24 09:02:52;;;;;;;;;;;3.20;99.90;;;;;;5011602;28;20327;-79
2023/01/24 09:05:18;;;;;;;;;;;3.30;99.90;;;;;;5007265;28;19920;-76
2023/01/24 09:07:43;;;;;;;;;;;3.30;99.90;;;;;;5014463;28;19951;-77
2023/01/24 09:10:09;;;;;;;;;;;3.30;99.90;;;;;;5009891;28;20400;-76
2023/01/24 09:12:35;;;;;;;;;;;3.40;99.90;;;;;;5009719;28;19922;-79
2023/01/24 09:15:00;;;;;;;;;;;3.40;99.90;;;;;;5011798;28;20416;-76
2023/01/24 09:17:26;;;;;;;;;;;3.40;99.90;;;;;;5006935;28;19975;-79
2023/01/24 09:19:51;;;;;;;;;;;3.30;99.90;;;;;;5010937;28;19913;-75
2023/01/24 09:22:17;;;;;;;;;;;3.30;99.90;;;;;;5010360;28;20371;-79
2023/01/24 09:24:42;;;;;;;;;;;3.40;99.90;;;;;;5010184;28;19951;-78
2023/01/24 09:27:09;;;;;;;;;;;3.40;99.90;;;;;;5007810;28;19975;-79
2023/01/24 09:29:35;;;;;;;;;;;3.40;99.90;;;;;;5010709;28;19937;-79
2023/01/24 09:32:00;;;;;;;;;;;3.40;99.90;;;;;;5013329;28;20434;-80
2023/01/24 09:34:26;;;;;;;;;;;3.50;99.90;;;;;;5010396;28;19920;-80
2023/01/24 09:36:51;;;;;;;;;;;3.50;99.90;;;;;;5009862;28;19948;-80
2023/01/24 09:39:17;;;;;;;;;;;3.50;99.90;;;;;;5009617;28;20023;-80
2023/01/24 09:41:55;;;;;;;;;;;3.50;99.90;;;;;;5005247;28;20329;-77
2023/01/24 09:44:25;;;;;;;;;;;3.50;99.90;;;;;;5009268;28;19961;-79
2023/01/24 09:46:52;;;;;;;;;;;3.50;99.90;;;;;;5007560;28;19913;-81
2023/01/24 09:49:27;;;;;;;;;;;3.50;99.90;;;;;;5006020;28;20332;-82
2023/01/24 09:51:53;;;;;;;;;;;3.60;99.90;;;;;;5005637;28;19910;-84
2023/01/24 09:54:39;;;;;;;;;;;3.60;99.90;;;;;;5008715;28;20464;-81
2023/01/24 09:57:13;;;;;;;;;;;3.60;99.90;;;;;;5021641;28;19961;-82
2023/01/24 09:59:41;;;;;;;;;;;3.70;99.90;;;;;;5013597;28;19945;-80
2023/01/24 10:02:17;;;;;;;;;;;3.70;99.90;;;;;;5015378;28;20276;-81
2023/01/24 10:04:43;;;;;;;;;;;3.60;99.90;;;;;;5012542;28;19910;-80
2023/01/24 10:07:18;;;;;;;;;;;3.70;99.90;;;;;;5025314;28;19914;-79
2023/01/24 10:09:58;;;;;;;;;;;3.70;99.90;;;;;;5012136;28;19909;-82
2023/01/24 10:12:39;;;;;;;;;;;3.70;99.90;;;;;;5015328;28;19917;-79
2023/01/24 10:15:07;;;;;;;;;;;3.70;99.90;;;;;;5013397;28;20284;-79
2023/01/24 10:17:43;;;;;;;;;;;3.80;99.90;;;;;;5010504;28;19965;-78
2023/01/24 10:20:28;;;;;;;;;;;3.80;99.90;;;;;;5010511;28;19914;-78
2023/01/24 10:23:02;;;;;;;;;;;3.90;99.90;;;;;;5016830;28;20000;-79
2023/01/24 10:25:46;;;;;;;;;;;3.80;99.90;;;;;;5020135;28;19913;-79
2023/01/24 10:28:38;;;;;;;;;;;3.80;99.90;;;;;;5020025;28;19947;-79
2023/01/24 10:31:07;;;;;;;;;;;3.80;99.90;;;;;;5018949;28;19913;-79
2023/01/24 10:33:45;;;;;;;;;;;3.90;99.90;;;;;;5011785;28;20370;-79
2023/01/24 10:36:10;;;;;;;;;;;3.90;99.90;;;;;;5010968;28;19999;-79
2023/01/24 10:38:36;;;;;;;;;;;3.90;99.90;;;;;;5010904;28;19996;-80
2023/01/24 10:41:12;;;;;;;;;;;3.90;99.90;;;;;;5011695;28;19996;-81
2023/01/24 10:43:38;;;;;;;;;;;3.90;99.90;;;;;;5012794;28;19963;-80
2023/01/24 10:46:27;;;;;;;;;;;3.90;99.90;;;;;;5013829;28;20352;-78
2023/01/24 10:48:53;;;;;;;;;;;3.90;99.90;;;;;;5013350;28;19996;-80
2023/01/24 10:51:23;;;;;;;;;;;4.00;99.90;;;;;;5012925;28;19920;-79
2023/01/24 10:53:49;;;;;;;;;;;4.00;99.90;;;;;;5012946;28;19917;-80
2023/01/24 10:56:15;;;;;;;;;;;4.00;99.90;;;;;;5012380;28;19913;-79
2023/01/24 10:59:00;;;;;;;;;;;4.00;99.90;;;;;;5014788;28;20279;-79
2023/01/24 11:01:36;;;;;;;;;;;4.10;99.90;;;;;;5016967;28;19914;-80
2023/01/24 11:04:20;;;;;;;;;;;4.00;99.90;;;;;;5011623;28;20245;-79
2023/01/24 11:06:47;;;;;;;;;;;4.00;99.90;;;;;;5008371;28;19913;-77
2023/01/24 11:09:19;;;;;;;;;;;4.00;99.90;;;;;;5016924;28;19916;-80
2023/01/24 11:11:46;;;;;;;;;;;4.10;99.90;;;;;;5011769;28;20221;-78
2023/01/24 11:14:14;;;;;;;;;;;4.10;99.90;;;;;;5011863;28;19913;-77
2023/01/24 11:16:44;;;;;;;;;;;4.10;99.90;;;;;;5017822;28;19917;-79
2023/01/24 11:19:29;;;;;;;;;;;4.10;99.90;;;;;;5016566;28;19928;-78
2023/01/24 11:21:56;;;;;;;;;;;4.10;99.90;;;;;;5010902;28;19921;-77
2023/01/24 11:24:22;;;;;;;;;;;4.10;99.90;;;;;;5020032;28;19916;-78
2023/01/24 11:26:57;;;;;;;;;;;4.10;99.90;;;;;;5007050;28;19984;-77
2023/01/24 11:29:22;;;;;;;;;;;4.10;99.90;;;;;;5005446;28;19917;-79
2023/01/24 11:31:51;;;;;;;;;;;4.10;99.90;;;;;;5002746;28;19927;-78
2023/01/24 11:34:17;;;;;;;;;;;4.10;99.90;;;;;;5010862;28;19921;-78
2023/01/24 11:36:45;;;;;;;;;;;4.00;99.90;;;;;;5002894;28;20619;-77
2023/01/24 11:39:31;;;;;;;;;;;4.10;99.90;;;;;;5007656;28;19940;-78
2023/01/24 11:42:01;;;;;;;;;;;4.10;99.90;;;;;;5000048;28;19920;-76
2023/01/24 11:44:39;;;;;;;;;;;4.10;99.90;;;;;;5013268;28;19917;-78
2023/01/24 11:47:10;;;;;;;;;;;4.10;99.90;;;;;;5009968;28;19924;-77
2023/01/24 11:49:54;;;;;;;;;;;4.10;99.90;;;;;;5010837;28;19948;-80
2023/01/24 11:52:24;;;;;;;;;;;4.10;99.90;;;;;;5006533;28;19913;-80
2023/01/24 11:54:56;;;;;;;;;;;4.20;99.90;;;;;;5013396;28;19937;-77
2023/01/24 11:57:21;;;;;;;;;;;4.10;99.90;;;;;;5011407;28;20284;-77
2023/01/24 12:00:11;;;;;;;;;;;4.20;99.90;;;;;;5014431;28;19920;-76
2023/01/24 12:02:55;;;;;;;;;;;4.20;99.90;;;;;;5006713;28;19921;-76
2023/01/24 12:05:33;;;;;;;;;;;4.30;99.90;;;;;;5008569;28;19976;-75
2023/01/24 12:08:23;;;;;;;;;;;4.20;99.90;;;;;;5006052;28;19913;-76
2023/01/24 12:11:13;;;;;;;;;;;4.30;99.90;;;;;;5011266;28;20374;-76
2023/01/24 12:13:57;;;;;;;;;;;4.30;99.90;;;;;;5012350;28;20360;-76
2023/01/24 12:16:42;;;;;;;;;;;4.30;99.90;;;;;;5010325;28;19995;-75
2023/01/24 12:19:28;;;;;;;;;;;4.30;99.90;;;;;;5006228;28;20013;-76
2023/01/24 12:21:55;;;;;;;;;;;4.30;99.90;;;;;;5008156;28;19917;-76
2023/01/24 12:24:37;;;;;;;;;;;4.40;99.90;;;;;;5008895;28;19917;-76
2023/01/24 12:27:06;;;;;;;;;;;4.40;99.90;;;;;;5006946;28;20281;-76
2023/01/24 12:29:34;;;;;;;;;;;4.50;99.90;;;;;;5005805;28;20300;-76
2023/01/24 12:32:05;;;;;;;;;;;4.50;99.90;;;;;;5006057;28;19917;-76
2023/01/24 12:34:36;;;;;;;;;;;4.40;99.90;;;;;;5006079;28;19920;-76
2023/01/24 12:37:14;;;;;;;;;;;4.40;99.90;;;;;;5009683;28;19913;-79
2023/01/24 12:40:05;;;;;;;;;;;4.40;99.90;;;;;;5013526;28;19915;-77
2023/01/24 12:42:40;;;;;;;;;;;4.40;99.90;;;;;;4990539;28;20421;-76
2023/01/24 12:45:10;;;;;;;;;;;4.40;99.90;;;;;;5010111;28;19999;-77
2023/01/24 12:47:46;;;;;;;;;;;4.50;99.90;;;;;;5014557;28;20300;-76
2023/01/24 12:50:17;;;;;;;;;;;4.40;99.90;;;;;;5018889;28;19944;-76
2023/01/24 12:52:50;;;;;;;;;;;4.40;99.90;;;;;;5025906;28;20425;-76
2023/01/24 12:55:18;;;;;;;;;;;4.40;99.90;;;;;;5020028;28;20296;-77
2023/01/24 12:57:48;;;;;;;;;;;4.40;99.90;;;;;;5013590;28;19971;-76
2023/01/24 13:00:16;;;;;;;;;;;4.40;99.90;;;;;;5011846;28;19978;-76
2023/01/24 13:02:45;;;;;;;;;;;4.40;99.90;;;;;;5019077;28;20272;-78
2023/01/24 13:05:13;;;;;;;;;;;4.40;99.90;;;;;;5017832;28;20296;-79
2023/01/24 13:07:57;;;;;;;;;;;4.40;99.90;;;;;;5018109;28;19963;-79
2023/01/24 13:10:28;;;;;;;;;;;4.40;99.90;;;;;;5021162;28;19928;-79
2023/01/24 13:12:54;;;;;;;;;;;4.40;99.90;;;;;;5009833;28;19913;-79
2023/01/24 13:15:32;;;;;;;;;;;4.30;99.90;;;;;;5009477;28;20338;-80
2023/01/24 13:18:17;;;;;;;;;;;4.30;99.90;;;;;;5007027;28;19918;-78
2023/01/24 13:21:02;;;;;;;;;;;4.40;99.90;;;;;;5004511;28;20427;-78
2023/01/24 13:23:30;;;;;;;;;;;4.30;99.90;;;;;;5014807;28;20336;-79
2023/01/24 13:25:56;;;;;;;;;;;4.30;99.90;;;;;;5007881;28;19960;-78
2023/01/24 13:28:29;;;;;;;;;;;4.30;99.90;;;;;;5009558;28;19920;-78
2023/01/24 13:31:20;;;;;;;;;;;4.30;99.90;;;;;;5007951;28;20799;-78
2023/01/24 13:33:49;;;;;;;;;;;4.30;99.90;;;;;;5011513;28;20011;-77
2023/01/24 13:36:16;;;;;;;;;;;4.30;99.90;;;;;;5020432;28;20280;-78
2023/01/24 13:38:43;;;;;;;;;;;4.30;99.90;;;;;;5020116;28;19915;-80
2023/01/24 13:41:16;;;;;;;;;;;4.30;99.90;;;;;;5015855;28;19917;-77
2023/01/24 13:43:52;;;;;;;;;;;4.40;99.90;;;;;;5016009;28;19917;-77
2023/01/24 13:46:17;;;;;;;;;;;4.40;99.90;;;;;;5025916;28;19936;-77
2023/01/24 13:48:52;;;;;;;;;;;4.50;99.90;;;;;;5034154;28;19913;-78
2023/01/24 13:51:21;;;;;;;;;;;4.50;99.90;;;;;;5025843;28;19920;-75
2023/01/24 13:53:59;;;;;;;;;;;4.40;99.90;;;;;;5029213;28;19913;-78
2023/01/24 13:56:24;;;;;;;;;;;4.40;99.90;;;;;;5034588;28;19936;-74
2023/01/24 13:58:51;;;;;;;;;;;4.40;99.90;;;;;;5025058;28;19921;-75
2023/01/24 14:01:18;;;;;;;;;;;4.30;99.90;;;;;;5029291;28;19909;-76
2023/01/24 14:03:58;;;;;;;;;;;4.30;99.90;;;;;;5036865;28;19905;-78
2023/01/24 14:06:25;;;;;;;;;;;4.40;99.90;;;;;;5016142;28;19906;-79
2023/01/24 14:08:57;;;;;;;;;;;4.30;99.90;;;;;;4994979;28;19978;-80
2023/01/24 14:11:24;;;;;;;;;;;4.40;99.90;;;;;;5011366;28;19949;-79
2023/01/24 14:13:49;;;;;;;;;;;4.40;99.90;;;;;;5012985;28;19917;-77
2023/01/24 14:16:25;;;;;;;;;;;4.40;99.90;;;;;;5014486;28;19905;-77
2023/01/24 14:18:53;;;;;;;;;;;4.40;99.90;;;;;;5015187;28;20356;-80
2023/01/24 14:21:20;;;;;;;;;;;4.40;99.90;;;;;;5013006;28;20016;-78
2023/01/24 14:23:48;;;;;;;;;;;4.40;99.90;;;;;;5012666;28;19913;-79
2023/01/24 14:26:15;;;;;;;;;;;4.30;99.90;;;;;;5011187;28;19919;-78
2023/01/24 14:28:45;;;;;;;;;;;4.30;99.90;;;;;;5013499;28;19932;-77
2023/01/24 14:31:31;;;;;;;;;;;4.30;99.90;;;;;;5019027;28;19913;-77
2023/01/24 14:34:15;;;;;;;;;;;4.30;99.90;;;;;;5012325;28;20324;-78
2023/01/24 14:36:42;;;;;;;;;;;4.40;99.90;;;;;;5021565;28;19932;-77
2023/01/24 14:39:10;;;;;;;;;;;4.40;99.90;;;;;;5019868;28;20386;-76
2023/01/24 14:41:36;;;;;;;;;;;4.40;99.90;;;;;;5014271;28;20515;-76
2023/01/24 14:44:01;;;;;;;;;;;4.30;99.90;;;;;;5013639;28;19909;-77
2023/01/24 14:46:27;;;;;;;;;;;4.30;99.90;;;;;;5023247;28;19920;-79
2023/01/24 14:48:52;;;;;;;;;;;4.30;99.90;;;;;;5028050;28;19913;-78
2023/01/24 14:51:21;;;;;;;;;;;4.30;99.90;;;;;;5013429;28;20004;-77
2023/01/24 14:53:51;;;;;;;;;;;4.30;99.90;;;;;;5018391;28;19943;-77
2023/01/24 14:56:17;;;;;;;;;;;4.30;99.90;;;;;;5020795;28;19909;-80
2023/01/24 14:58:43;;;;;;;;;;;4.20;99.90;;;;;;5025135;28;19910;-80
2023/01/24 15:01:29;;;;;;;;;;;4.30;99.90;;;;;;5021542;28;19920;-79
2023/01/24 15:03:56;;;;;;;;;;;4.20;99.90;;;;;;5032794;28;19913;-80
2023/01/24 15:06:22;;;;;;;;;;;4.20;99.90;;;;;;5013243;28;19913;-76
2023/01/24 15:08:48;;;;;;;;;;;4.20;99.90;;;;;;5013068;28;19909;-78
2023/01/24 15:11:21;;;;;;;;;;;4.20;99.90;;;;;;5017814;28;19914;-78
2023/01/24 15:13:51;;;;;;;;;;;4.20;99.90;;;;;;5016593;28;19913;-77
2023/01/24 15:16:18;;;;;;;;;;;4.20;99.90;;;;;;5012309;28;20253;-77
2023/01/24 15:18:54;;;;;;;;;;;4.30;99.90;;;;;;5013385;28;19928;-76